sensor_id;sensor_type;location;lat;lon;timestamp;pressure;altitude;pressure_sealevel;temperature;humidity
77869;BME280;67231;59.144;37.934;2023-04-20T00:01:45;101357.97;;;5.12;37.92
77869;BME280;67231;59.144;37.934;2023-04-20T00:04:15;101360.69;;;5.10;37.58
77869;BME280;67231;59.144;37.934;2023-04-20T00:06:43;101357.25;;;5.08;37.99
77869;BME280;67231;59.144;37.934;2023-04-20T00:09:12;101357.44;;;5.05;38.20
77869;BME280;67231;59.144;37.934;2023-04-20T00:11:39;101345.41;;;5.01;38.13
77869;BME280;67231;59.144;37.934;2023-04-20T00:14:06;101355.16;;;4.99;38.41
77869;BME280;67231;59.144;37.934;2023-04-20T00:16:33;101347.44;;;4.96;38.80
77869;BME280;67231;59.144;37.934;2023-04-20T00:18:59;101346.88;;;4.89;39.01
77869;BME280;67231;59.144;37.934;2023-04-20T00:21:26;101336.56;;;4.86;38.35
77869;BME280;67231;59.144;37.934;2023-04-20T00:23:52;101345.28;;;4.87;38.79
77869;BME280;67231;59.144;37.934;2023-04-20T00:26:19;101345.28;;;4.87;38.98
77869;BME280;67231;59.144;37.934;2023-04-20T00:28:50;101345.44;;;4.84;38.82
77869;BME280;67231;59.144;37.934;2023-04-20T00:31:18;101344.69;;;4.82;38.88
77869;BME280;67231;59.144;37.934;2023-04-20T00:33:47;101343.06;;;4.79;39.21
77869;BME280;67231;59.144;37.934;2023-04-20T00:36:13;101339.75;;;4.76;39.14
77869;BME280;67231;59.144;37.934;2023-04-20T00:38:40;101342.56;;;4.72;38.95
77869;BME280;67231;59.144;37.934;2023-04-20T00:41:06;101334.75;;;4.71;39.20
77869;BME280;67231;59.144;37.934;2023-04-20T00:43:33;101335.66;;;4.70;39.15
77869;BME280;67231;59.144;37.934;2023-04-20T00:45:59;101334.81;;;4.69;39.48
77869;BME280;67231;59.144;37.934;2023-04-20T00:48:26;101335.66;;;4.70;39.44
77869;BME280;67231;59.144;37.934;2023-04-20T00:50:53;101329.56;;;4.69;39.23
77869;BME280;67231;59.144;37.934;2023-04-20T00:53:19;101331.34;;;4.69;39.38
77869;BME280;67231;59.144;37.934;2023-04-20T00:55:49;101324.16;;;4.72;39.81
77869;BME280;67231;59.144;37.934;2023-04-20T00:58:16;101325.84;;;4.73;39.37
77869;BME280;67231;59.144;37.934;2023-04-20T01:00:42;101317.19;;;4.71;39.80
77869;BME280;67231;59.144;37.934;2023-04-20T01:03:09;101320.75;;;4.70;39.94
77869;BME280;67231;59.144;37.934;2023-04-20T01:05:36;101317.25;;;4.70;39.64
77869;BME280;67231;59.144;37.934;2023-04-20T01:08:02;101320.91;;;4.67;40.00
77869;BME280;67231;59.144;37.934;2023-04-20T01:10:30;101310.56;;;4.64;40.18
77869;BME280;67231;59.144;37.934;2023-04-20T01:12:57;101317.59;;;4.64;40.39
77869;BME280;67231;59.144;37.934;2023-04-20T01:15:23;101314.13;;;4.63;40.18
77869;BME280;67231;59.144;37.934;2023-04-20T01:17:49;101310.56;;;4.64;40.22
77869;BME280;67231;59.144;37.934;2023-04-20T01:20:17;101315.81;;;4.64;39.69
77869;BME280;67231;59.144;37.934;2023-04-20T01:22:47;101305.31;;;4.64;40.05
77869;BME280;67231;59.144;37.934;2023-04-20T01:25:14;101296.63;;;4.62;39.96
77869;BME280;67231;59.144;37.934;2023-04-20T01:27:41;101295.78;;;4.62;40.24
77869;BME280;67231;59.144;37.934;2023-04-20T01:30:08;101306.31;;;4.62;40.15
77869;BME280;67231;59.144;37.934;2023-04-20T01:32:38;101295.94;;;4.59;40.24
77869;BME280;67231;59.144;37.934;2023-04-20T01:35:05;101294.28;;;4.58;40.21
77869;BME280;67231;59.144;37.934;2023-04-20T01:37:32;101296.97;;;4.56;40.18
77869;BME280;67231;59.144;37.934;2023-04-20T01:40:03;101305.63;;;4.58;40.43
77869;BME280;67231;59.144;37.934;2023-04-20T01:42:32;101296.81;;;4.59;40.21
77869;BME280;67231;59.144;37.934;2023-04-20T01:44:59;101289.09;;;4.56;40.59
77869;BME280;67231;59.144;37.934;2023-04-20T01:47:25;101292.56;;;4.56;40.23
77869;BME280;67231;59.144;37.934;2023-04-20T01:49:52;101288.16;;;4.57;40.27
77869;BME280;67231;59.144;37.934;2023-04-20T01:52:18;101296.97;;;4.56;40.60
77869;BME280;67231;59.144;37.934;2023-04-20T01:54:48;101286.63;;;4.53;40.52
77869;BME280;67231;59.144;37.934;2023-04-20T01:57:15;101286.78;;;4.50;40.36
77869;BME280;67231;59.144;37.934;2023-04-20T01:59:41;101284.16;;;4.50;40.73
77869;BME280;67231;59.144;37.934;2023-04-20T02:02:08;101292.81;;;4.52;40.64
77869;BME280;67231;59.144;37.934;2023-04-20T02:04:34;101294.59;;;4.51;41.08
77869;BME280;67231;59.144;37.934;2023-04-20T02:07:01;101286.78;;;4.50;41.08
77869;BME280;67231;59.144;37.934;2023-04-20T02:09:28;101287.78;;;4.47;41.05
77869;BME280;67231;59.144;37.934;2023-04-20T02:11:55;101284.25;;;4.48;41.26
77869;BME280;67231;59.144;37.934;2023-04-20T02:14:22;101288.63;;;4.48;41.34
77869;BME280;67231;59.144;37.934;2023-04-20T02:16:48;101283.38;;;4.48;41.53
77869;BME280;67231;59.144;37.934;2023-04-20T02:19:15;101292.13;;;4.48;41.40
77869;BME280;67231;59.144;37.934;2023-04-20T02:21:41;101286.13;;;4.46;41.57
77869;BME280;67231;59.144;37.934;2023-04-20T02:24:08;101277.53;;;4.43;41.65
77869;BME280;67231;59.144;37.934;2023-04-20T02:26:34;101284.56;;;4.42;42.11
77869;BME280;67231;59.144;37.934;2023-04-20T02:29:00;101286.34;;;4.42;42.12
77869;BME280;67231;59.144;37.934;2023-04-20T02:31:27;101276.75;;;4.41;42.34
77869;BME280;67231;59.144;37.934;2023-04-20T02:33:53;101274.97;;;4.41;42.45
77869;BME280;67231;59.144;37.934;2023-04-20T02:36:20;101288.03;;;4.43;42.65
77869;BME280;67231;59.144;37.934;2023-04-20T02:38:46;101285.25;;;4.46;42.61
77869;BME280;67231;59.144;37.934;2023-04-20T02:41:13;101292.06;;;4.50;42.79
77869;BME280;67231;59.144;37.934;2023-04-20T02:43:39;101283.91;;;4.54;42.75
77869;BME280;67231;59.144;37.934;2023-04-20T02:46:06;101286.31;;;4.59;43.02
77869;BME280;67231;59.144;37.934;2023-04-20T02:48:34;101285.94;;;4.65;43.13
77869;BME280;67231;59.144;37.934;2023-04-20T02:51:00;101277.81;;;4.70;43.00
77869;BME280;67231;59.144;37.934;2023-04-20T02:53:32;101273.28;;;4.73;42.57
77869;BME280;67231;59.144;37.934;2023-04-20T02:56:17;101280.78;;;4.80;43.01
77869;BME280;67231;59.144;37.934;2023-04-20T02:58:49;101265.56;;;4.86;42.81
77869;BME280;67231;59.144;37.934;2023-04-20T03:01:41;101273.94;;;4.93;42.42
77869;BME280;67231;59.144;37.934;2023-04-20T03:04:14;101273.63;;;4.99;42.65
77869;BME280;67231;59.144;37.934;2023-04-20T03:06:49;101259.34;;;5.03;42.39
77869;BME280;67231;59.144;37.934;2023-04-20T03:09:21;101261.47;;;5.13;43.20
77869;BME280;67231;59.144;37.934;2023-04-20T03:12:07;101267.31;;;5.18;42.84
77869;BME280;67231;59.144;37.934;2023-04-20T03:14:52;101269.69;;;5.22;42.70
77869;BME280;67231;59.144;37.934;2023-04-20T03:17:24;101265.84;;;5.28;42.49
77869;BME280;67231;59.144;37.934;2023-04-20T03:19:51;101272.63;;;5.32;42.87
77869;BME280;67231;59.144;37.934;2023-04-20T03:22:17;101271.81;;;5.32;42.97
77869;BME280;67231;59.144;37.934;2023-04-20T03:24:46;101273.06;;;5.24;42.98
77869;BME280;67231;59.144;37.934;2023-04-20T03:27:32;101268.16;;;5.18;43.08
77869;BME280;67231;59.144;37.934;2023-04-20T03:30:08;101257.88;;;5.14;43.38
77869;BME280;67231;59.144;37.934;2023-04-20T03:32:34;101257.28;;;5.08;43.44
77869;BME280;67231;59.144;37.934;2023-04-20T03:35:01;101253.91;;;5.06;43.49
77869;BME280;67231;59.144;37.934;2023-04-20T03:37:35;101250.53;;;5.04;43.55
77869;BME280;67231;59.144;37.934;2023-04-20T03:40:02;101255.63;;;5.07;43.46
77869;BME280;67231;59.144;37.934;2023-04-20T03:42:29;101248.31;;;5.13;43.53
77869;BME280;67231;59.144;37.934;2023-04-20T03:44:56;101260.09;;;5.21;43.59
77869;BME280;67231;59.144;37.934;2023-04-20T03:47:22;101261.19;;;5.33;43.35
77869;BME280;67231;59.144;37.934;2023-04-20T03:49:49;101257.06;;;5.43;43.41
77869;BME280;67231;59.144;37.934;2023-04-20T03:52:16;101261.06;;;5.51;42.97
77869;BME280;67231;59.144;37.934;2023-04-20T03:54:42;101247.34;;;5.60;43.27
77869;BME280;67231;59.144;37.934;2023-04-20T03:57:11;101257.09;;;5.74;42.25
77869;BME280;67231;59.144;37.934;2023-04-20T03:59:39;101260.84;;;5.84;42.56
77869;BME280;67231;59.144;37.934;2023-04-20T04:02:06;101249.69;;;5.95;42.34
77869;BME280;67231;59.144;37.934;2023-04-20T04:04:33;101246.72;;;6.01;41.88
77869;BME280;67231;59.144;37.934;2023-04-20T04:06:59;101242.84;;;6.07;41.95
77869;BME280;67231;59.144;37.934;2023-04-20T04:09:26;101240.72;;;6.13;42.58
77869;BME280;67231;59.144;37.934;2023-04-20T04:11:53;101239.94;;;6.26;41.28
77869;BME280;67231;59.144;37.934;2023-04-20T04:14:20;101228.84;;;6.35;41.50
77869;BME280;67231;59.144;37.934;2023-04-20T04:16:46;101236.38;;;6.41;41.00
77869;BME280;67231;59.144;37.934;2023-04-20T04:19:13;101242.03;;;6.49;41.00
77869;BME280;67231;59.144;37.934;2023-04-20T04:21:40;101239.09;;;6.54;41.31
77869;BME280;67231;59.144;37.934;2023-04-20T04:24:07;101233.06;;;6.66;40.48
77869;BME280;67231;59.144;37.934;2023-04-20T04:26:39;101236.06;;;6.74;40.69
77869;BME280;67231;59.144;37.934;2023-04-20T04:29:06;101239.59;;;6.88;41.07
77869;BME280;67231;59.144;37.934;2023-04-20T04:31:33;101229.66;;;7.06;40.27
77869;BME280;67231;59.144;37.934;2023-04-20T04:34:07;101239.34;;;7.33;39.96
77869;BME280;67231;59.144;37.934;2023-04-20T04:36:40;101235.38;;;8.81;38.56
77869;BME280;67231;59.144;37.934;2023-04-20T04:39:11;101235.38;;;12.29;33.96
77869;BME280;67231;59.144;37.934;2023-04-20T04:41:42;101234.25;;;14.84;31.05
77869;BME280;67231;59.144;37.934;2023-04-20T04:44:18;101241.81;;;16.73;29.47
77869;BME280;67231;59.144;37.934;2023-04-20T04:46:46;101244.31;;;18.00;28.16
77869;BME280;67231;59.144;37.934;2023-04-20T04:49:13;101246.81;;;18.97;27.04
77869;BME280;67231;59.144;37.934;2023-04-20T04:51:40;101246.63;;;20.06;26.18
77869;BME280;67231;59.144;37.934;2023-04-20T04:54:06;101245.78;;;20.65;25.43
77869;BME280;67231;59.144;37.934;2023-04-20T04:56:33;101246.41;;;21.19;25.08
77869;BME280;67231;59.144;37.934;2023-04-20T04:58:59;101245.56;;;21.61;24.33
77869;BME280;67231;59.144;37.934;2023-04-20T05:01:26;101251.28;;;22.30;23.24
77869;BME280;67231;59.144;37.934;2023-04-20T05:03:52;101249.56;;;22.64;22.95
77869;BME280;67231;59.144;37.934;2023-04-20T05:06:19;101259.75;;;23.10;22.22
77869;BME280;67231;59.144;37.934;2023-04-20T05:08:45;101253.97;;;23.53;21.60
77869;BME280;67231;59.144;37.934;2023-04-20T05:11:12;101253.09;;;24.13;20.80
77869;BME280;67231;59.144;37.934;2023-04-20T05:13:38;101247.25;;;24.23;20.63
77869;BME280;67231;59.144;37.934;2023-04-20T05:16:05;101252.78;;;24.61;20.29
77869;BME280;67231;59.144;37.934;2023-04-20T05:18:31;101245.22;;;25.08;19.51
77869;BME280;67231;59.144;37.934;2023-04-20T05:20:58;101241.34;;;25.30;18.97
77869;BME280;67231;59.144;37.934;2023-04-20T05:23:24;101241.78;;;25.20;19.18
77869;BME280;67231;59.144;37.934;2023-04-20T05:25:51;101245.75;;;25.56;19.51
77869;BME280;67231;59.144;37.934;2023-04-20T05:28:17;101242.84;;;26.38;18.75
77869;BME280;67231;59.144;37.934;2023-04-20T05:30:43;101240.88;;;26.82;18.15
77869;BME280;67231;59.144;37.934;2023-04-20T05:33:10;101242.06;;;27.29;17.76
77869;BME280;67231;59.144;37.934;2023-04-20T05:35:40;101234.56;;;27.12;17.88
77869;BME280;67231;59.144;37.934;2023-04-20T05:38:06;101234.78;;;27.11;17.94
77869;BME280;67231;59.144;37.934;2023-04-20T05:40:37;101233.94;;;26.68;18.21
77869;BME280;67231;59.144;37.934;2023-04-20T05:43:04;101231.69;;;26.65;17.88
77869;BME280;67231;59.144;37.934;2023-04-20T05:45:30;101233.75;;;27.23;17.24
77869;BME280;67231;59.144;37.934;2023-04-20T05:47:59;101236.59;;;27.29;17.55
77869;BME280;67231;59.144;37.934;2023-04-20T05:50:26;101231.59;;;28.15;16.81
77869;BME280;67231;59.144;37.934;2023-04-20T05:52:52;101239.22;;;28.53;16.70
77869;BME280;67231;59.144;37.934;2023-04-20T05:55:19;101221.84;;;28.72;15.92
77869;BME280;67231;59.144;37.934;2023-04-20T05:57:45;101229.59;;;29.37;15.79
77869;BME280;67231;59.144;37.934;2023-04-20T06:00:14;101227.59;;;29.84;15.07
77869;BME280;67231;59.144;37.934;2023-04-20T06:02:42;101229.03;;;30.08;15.29
77869;BME280;67231;59.144;37.934;2023-04-20T06:05:09;101232.72;;;29.63;15.26
77869;BME280;67231;59.144;37.934;2023-04-20T06:07:36;101224.53;;;29.63;15.38
77869;BME280;67231;59.144;37.934;2023-04-20T06:10:03;101225.47;;;29.86;15.38
77869;BME280;67231;59.144;37.934;2023-04-20T06:12:33;101222.78;;;30.35;14.74
77869;BME280;67231;59.144;37.934;2023-04-20T06:15:00;101221.03;;;30.95;14.17
77869;BME280;67231;59.144;37.934;2023-04-20T06:17:27;101219.56;;;30.87;14.41
77869;BME280;67231;59.144;37.934;2023-04-20T06:19:53;101227.78;;;30.87;14.27
77869;BME280;67231;59.144;37.934;2023-04-20T06:22:20;101228.03;;;31.08;13.75
77869;BME280;67231;59.144;37.934;2023-04-20T06:24:46;101218.34;;;31.00;13.68
77869;BME280;67231;59.144;37.934;2023-04-20T06:27:13;101219.84;;;31.13;13.37
77869;BME280;67231;59.144;37.934;2023-04-20T06:29:39;101211.78;;;31.34;13.56
77869;BME280;67231;59.144;37.934;2023-04-20T06:32:06;101215.34;;;31.34;13.70
77869;BME280;67231;59.144;37.934;2023-04-20T06:34:32;101222.34;;;30.93;14.21
77869;BME280;67231;59.144;37.934;2023-04-20T06:36:59;101210.53;;;31.14;14.03
77869;BME280;67231;59.144;37.934;2023-04-20T06:39:26;101209.78;;;31.56;13.66
77869;BME280;67231;59.144;37.934;2023-04-20T06:41:52;101205.38;;;31.98;13.07
77869;BME280;67231;59.144;37.934;2023-04-20T06:44:21;101192.31;;;31.73;14.23
77869;BME280;67231;59.144;37.934;2023-04-20T06:46:47;101207.88;;;32.05;12.66
77869;BME280;67231;59.144;37.934;2023-04-20T06:49:13;101207.25;;;32.51;12.25
77869;BME280;67231;59.144;37.934;2023-04-20T06:51:40;101200.69;;;32.62;12.17
77869;BME280;67231;59.144;37.934;2023-04-20T06:54:06;101198.13;;;32.35;12.48
77869;BME280;67231;59.144;37.934;2023-04-20T06:56:32;101200.34;;;32.43;12.81
77869;BME280;67231;59.144;37.934;2023-04-20T06:58:59;101201.69;;;32.30;13.12
77869;BME280;67231;59.144;37.934;2023-04-20T07:01:25;101199.75;;;32.25;12.72
77869;BME280;67231;59.144;37.934;2023-04-20T07:03:52;101198.53;;;32.06;12.27
77869;BME280;67231;59.144;37.934;2023-04-20T07:06:18;101189.81;;;32.09;12.30
77869;BME280;67231;59.144;37.934;2023-04-20T07:08:45;101185.78;;;32.42;12.25
77869;BME280;67231;59.144;37.934;2023-04-20T07:11:11;101177.91;;;32.87;11.69
77869;BME280;67231;59.144;37.934;2023-04-20T07:13:38;101182.03;;;32.69;11.87
77869;BME280;67231;59.144;37.934;2023-04-20T07:16:04;101186.56;;;32.27;11.95
77869;BME280;67231;59.144;37.934;2023-04-20T07:18:31;101179.72;;;32.40;12.39
77869;BME280;67231;59.144;37.934;2023-04-20T07:20:58;101178.97;;;32.60;11.94
77869;BME280;67231;59.144;37.934;2023-04-20T07:23:24;101178.22;;;32.91;11.50
77869;BME280;67231;59.144;37.934;2023-04-20T07:25:51;101174.63;;;33.00;11.41
77869;BME280;67231;59.144;37.934;2023-04-20T07:28:17;101180.69;;;33.02;11.14
77869;BME280;67231;59.144;37.934;2023-04-20T07:30:43;101175.19;;;33.02;10.89
77869;BME280;67231;59.144;37.934;2023-04-20T07:33:10;101169.59;;;32.46;11.13
77869;BME280;67231;59.144;37.934;2023-04-20T07:35:36;101167.94;;;32.40;11.51
77869;BME280;67231;59.144;37.934;2023-04-20T07:38:03;101161.63;;;32.60;10.95
77869;BME280;67231;59.144;37.934;2023-04-20T07:40:29;101163.84;;;32.58;10.74
77869;BME280;67231;59.144;37.934;2023-04-20T07:42:56;101160.31;;;32.67;10.96
77869;BME280;67231;59.144;37.934;2023-04-20T07:45:22;101157.56;;;32.73;11.32
77869;BME280;67231;59.144;37.934;2023-04-20T07:47:49;101155.88;;;32.61;11.01
77869;BME280;67231;59.144;37.934;2023-04-20T07:50:17;101156.41;;;32.43;10.86
77869;BME280;67231;59.144;37.934;2023-04-20T07:52:43;101152.28;;;32.51;11.05
77869;BME280;67231;59.144;37.934;2023-04-20T07:55:10;101150.25;;;32.15;10.78
77869;BME280;67231;59.144;37.934;2023-04-20T07:57:37;101151.97;;;32.37;11.30
77869;BME280;67231;59.144;37.934;2023-04-20T08:00:04;101141.28;;;32.45;10.82
77869;BME280;67231;59.144;37.934;2023-04-20T08:02:43;101142.72;;;33.10;10.69
77869;BME280;67231;59.144;37.934;2023-04-20T08:05:10;101144.94;;;33.23;10.10
77869;BME280;67231;59.144;37.934;2023-04-20T08:07:37;101138.34;;;32.88;10.20
77869;BME280;67231;59.144;37.934;2023-04-20T08:10:04;101136.91;;;32.60;10.55
77869;BME280;67231;59.144;37.934;2023-04-20T08:12:34;101134.69;;;32.57;10.09
77869;BME280;67231;59.144;37.934;2023-04-20T08:15:01;101131.94;;;32.52;10.66
77869;BME280;67231;59.144;37.934;2023-04-20T08:17:33;101127.16;;;32.06;10.65
77869;BME280;67231;59.144;37.934;2023-04-20T08:19:59;101126.06;;;30.79;10.75
77869;BME280;67231;59.144;37.934;2023-04-20T08:22:27;101127.38;;;30.00;11.33
77869;BME280;67231;59.144;37.934;2023-04-20T08:24:56;101122.97;;;29.76;11.72
77869;BME280;67231;59.144;37.934;2023-04-20T08:27:23;101104.59;;;29.55;11.61
77869;BME280;67231;59.144;37.934;2023-04-20T08:29:49;101108.38;;;28.64;11.78
77869;BME280;67231;59.144;37.934;2023-04-20T08:32:16;101091.91;;;26.71;13.08
77869;BME280;67231;59.144;37.934;2023-04-20T08:34:44;101090.47;;;25.02;13.76
77869;BME280;67231;59.144;37.934;2023-04-20T08:37:10;101082.53;;;23.91;13.84
77869;BME280;67231;59.144;37.934;2023-04-20T08:39:36;101092.06;;;23.15;14.51
77869;BME280;67231;59.144;37.934;2023-04-20T08:42:04;101081.19;;;22.62;14.94
77869;BME280;67231;59.144;37.934;2023-04-20T08:44:31;101072.91;;;22.15;15.24
77869;BME280;67231;59.144;37.934;2023-04-20T08:46:58;101076.56;;;21.87;16.22
77869;BME280;67231;59.144;37.934;2023-04-20T08:49:26;101075.59;;;21.60;15.92
77869;BME280;67231;59.144;37.934;2023-04-20T08:51:53;101064.41;;;21.06;16.42
77869;BME280;67231;59.144;37.934;2023-04-20T08:54:23;101062.50;;;20.35;16.18
77869;BME280;67231;59.144;37.934;2023-04-20T08:56:50;101056.94;;;19.86;16.90
77869;BME280;67231;59.144;37.934;2023-04-20T08:59:16;101056.28;;;19.54;17.43
77869;BME280;67231;59.144;37.934;2023-04-20T09:01:43;101059.13;;;19.37;17.28
77869;BME280;67231;59.144;37.934;2023-04-20T09:04:18;101055.50;;;19.15;17.56
77869;BME280;67231;59.144;37.934;2023-04-20T09:06:45;101043.16;;;19.06;17.28
77869;BME280;67231;59.144;37.934;2023-04-20T09:09:12;101044.06;;;19.13;17.82
77869;BME280;67231;59.144;37.934;2023-04-20T09:11:38;101034.25;;;19.05;17.89
77869;BME280;67231;59.144;37.934;2023-04-20T09:14:08;101034.47;;;18.96;17.60
77869;BME280;67231;59.144;37.934;2023-04-20T09:16:49;101045.66;;;19.07;17.50
77869;BME280;67231;59.144;37.934;2023-04-20T09:19:23;101036.09;;;19.05;18.30
77869;BME280;67231;59.144;37.934;2023-04-20T09:21:54;101023.09;;;18.93;17.70
77869;BME280;67231;59.144;37.934;2023-04-20T09:24:23;101014.38;;;18.91;18.26
77869;BME280;67231;59.144;37.934;2023-04-20T09:26:55;101017.53;;;18.95;17.85
77869;BME280;67231;59.144;37.934;2023-04-20T09:29:23;101021.84;;;18.81;18.21
77869;BME280;67231;59.144;37.934;2023-04-20T09:31:53;101017.78;;;18.62;18.03
77869;BME280;67231;59.144;37.934;2023-04-20T09:34:20;101011.69;;;18.45;18.45
77869;BME280;67231;59.144;37.934;2023-04-20T09:36:50;101022.56;;;18.29;19.06
77869;BME280;67231;59.144;37.934;2023-04-20T09:39:21;101016.22;;;18.22;18.78
77869;BME280;67231;59.144;37.934;2023-04-20T09:41:51;101010.56;;;18.16;18.46
77869;BME280;67231;59.144;37.934;2023-04-20T09:44:18;101009.53;;;18.17;18.98
77869;BME280;67231;59.144;37.934;2023-04-20T09:46:44;101008.91;;;18.15;18.95
77869;BME280;67231;59.144;37.934;2023-04-20T09:49:12;100995.75;;;18.20;19.98
77869;BME280;67231;59.144;37.934;2023-04-20T09:51:41;100994.25;;;17.95;19.70
77869;BME280;67231;59.144;37.934;2023-04-20T09:54:11;100984.28;;;18.04;19.69
77869;BME280;67231;59.144;37.934;2023-04-20T09:56:38;100987.53;;;18.22;19.39
77869;BME280;67231;59.144;37.934;2023-04-20T09:59:05;100984.47;;;18.48;19.82
77869;BME280;67231;59.144;37.934;2023-04-20T10:01:33;100979.44;;;19.21;19.51
77869;BME280;67231;59.144;37.934;2023-04-20T10:04:04;100979.97;;;19.76;18.56
77869;BME280;67231;59.144;37.934;2023-04-20T10:06:33;100976.72;;;19.81;18.37
77869;BME280;67231;59.144;37.934;2023-04-20T10:09:02;100974.91;;;19.88;18.65
77869;BME280;67231;59.144;37.934;2023-04-20T10:13:58;100966.41;;;19.70;17.89
77869;BME280;67231;59.144;37.934;2023-04-20T10:16:25;100962.78;;;19.62;18.30
77869;BME280;67231;59.144;37.934;2023-04-20T10:19:10;100968.28;;;19.39;18.25
77869;BME280;67231;59.144;37.934;2023-04-20T10:21:47;100973.28;;;19.27;18.05
77869;BME280;67231;59.144;37.934;2023-04-20T10:24:15;100964.94;;;18.92;18.10
77869;BME280;67231;59.144;37.934;2023-04-20T10:26:53;100955.47;;;18.97;18.70
77869;BME280;67231;59.144;37.934;2023-04-20T10:29:26;100960.03;;;18.96;18.72
77869;BME280;67231;59.144;37.934;2023-04-20T10:31:54;100967.19;;;18.66;18.81
77869;BME280;67231;59.144;37.934;2023-04-20T10:34:31;100950.69;;;18.08;19.09
77869;BME280;67231;59.144;37.934;2023-04-20T10:37:12;100960.28;;;18.02;19.90
77869;BME280;67231;59.144;37.934;2023-04-20T10:39:44;100941.13;;;18.05;19.43
77869;BME280;67231;59.144;37.934;2023-04-20T10:42:11;100929.44;;;18.21;19.24
77869;BME280;67231;59.144;37.934;2023-04-20T10:44:51;100929.91;;;18.25;19.35
77869;BME280;67231;59.144;37.934;2023-04-20T10:47:29;100942.25;;;18.34;19.32
77869;BME280;67231;59.144;37.934;2023-04-20T10:50:09;100926.53;;;18.08;19.94
77869;BME280;67231;59.144;37.934;2023-04-20T10:52:38;100936.81;;;17.96;19.82
77869;BME280;67231;59.144;37.934;2023-04-20T10:55:16;100919.63;;;18.05;20.01
77869;BME280;67231;59.144;37.934;2023-04-20T10:57:44;100921.16;;;18.08;20.13
77869;BME280;67231;59.144;37.934;2023-04-20T11:02:52;100922.75;;;17.94;19.55
77869;BME280;67231;59.144;37.934;2023-04-20T11:05:21;100915.06;;;17.82;20.10
77869;BME280;67231;59.144;37.934;2023-04-20T11:07:54;100914.47;;;17.72;20.06
77869;BME280;67231;59.144;37.934;2023-04-20T11:10:40;100909.13;;;17.64;20.74
77869;BME280;67231;59.144;37.934;2023-04-20T11:13:22;100905.09;;;17.68;20.50
77869;BME280;67231;59.144;37.934;2023-04-20T11:15:51;100895.97;;;17.77;21.02
77869;BME280;67231;59.144;37.934;2023-04-20T11:18:17;100908.25;;;17.72;20.91
77869;BME280;67231;59.144;37.934;2023-04-20T11:20:51;100898.78;;;17.61;20.78
77869;BME280;67231;59.144;37.934;2023-04-20T11:23:19;100900.94;;;17.57;20.92
77869;BME280;67231;59.144;37.934;2023-04-20T11:28:17;100898.44;;;17.24;20.80
77869;BME280;67231;59.144;37.934;2023-04-20T11:30:44;100892.25;;;17.24;20.43
77869;BME280;67231;59.144;37.934;2023-04-20T11:33:10;100888.19;;;17.28;20.98
77869;BME280;67231;59.144;37.934;2023-04-20T11:35:41;100880.75;;;17.38;20.97
77869;BME280;67231;59.144;37.934;2023-04-20T11:38:07;100881.53;;;17.24;21.72
77869;BME280;67231;59.144;37.934;2023-04-20T11:40:35;100866.16;;;17.09;21.53
77869;BME280;67231;59.144;37.934;2023-04-20T11:43:01;100863.84;;;16.98;21.25
77869;BME280;67231;59.144;37.934;2023-04-20T11:45:32;100856.69;;;16.90;21.54
77869;BME280;67231;59.144;37.934;2023-04-20T11:47:59;100857.19;;;16.86;22.01
77869;BME280;67231;59.144;37.934;2023-04-20T11:50:26;100856.00;;;16.80;21.90
77869;BME280;67231;59.144;37.934;2023-04-20T11:52:52;100856.69;;;16.74;21.88
77869;BME280;67231;59.144;37.934;2023-04-20T11:55:19;100850.22;;;16.60;22.10
77869;BME280;67231;59.144;37.934;2023-04-20T11:57:46;100853.22;;;16.57;22.17
77869;BME280;67231;59.144;37.934;2023-04-20T12:00:13;100845.50;;;16.62;22.33
77869;BME280;67231;59.144;37.934;2023-04-20T12:02:41;100837.75;;;16.75;22.65
77869;BME280;67231;59.144;37.934;2023-04-20T12:05:07;100846.97;;;16.81;22.31
77869;BME280;67231;59.144;37.934;2023-04-20T12:07:34;100836.66;;;16.53;22.38
77869;BME280;67231;59.144;37.934;2023-04-20T12:10:00;100842.88;;;16.37;22.81
77869;BME280;67231;59.144;37.934;2023-04-20T12:12:27;100837.19;;;16.24;22.88
77869;BME280;67231;59.144;37.934;2023-04-20T12:14:53;100827.34;;;16.16;23.24
77869;BME280;67231;59.144;37.934;2023-04-20T12:17:19;100831.03;;;16.15;23.59
77869;BME280;67231;59.144;37.934;2023-04-20T12:19:46;100820.31;;;16.07;23.25
77869;BME280;67231;59.144;37.934;2023-04-20T12:22:12;100827.19;;;15.93;23.75
77869;BME280;67231;59.144;37.934;2023-04-20T12:24:39;100815.66;;;15.76;22.89
77869;BME280;67231;59.144;37.934;2023-04-20T12:27:05;100819.13;;;15.60;23.34
77869;BME280;67231;59.144;37.934;2023-04-20T12:29:32;100817.75;;;15.48;23.58
77869;BME280;67231;59.144;37.934;2023-04-20T12:31:58;100813.38;;;15.39;23.48
77869;BME280;67231;59.144;37.934;2023-04-20T12:34:25;100809.06;;;15.38;23.36
77869;BME280;67231;59.144;37.934;2023-04-20T12:36:51;100805.69;;;15.36;23.46
77869;BME280;67231;59.144;37.934;2023-04-20T12:39:18;100811.19;;;15.34;23.41
77869;BME280;67231;59.144;37.934;2023-04-20T12:41:44;100798.84;;;15.41;23.86
77869;BME280;67231;59.144;37.934;2023-04-20T12:44:11;100799.84;;;15.48;23.86
77869;BME280;67231;59.144;37.934;2023-04-20T12:46:38;100796.19;;;15.58;24.06
77869;BME280;67231;59.144;37.934;2023-04-20T12:49:04;100794.72;;;15.63;23.71
77869;BME280;67231;59.144;37.934;2023-04-20T12:51:31;100793.34;;;15.59;23.95
77869;BME280;67231;59.144;37.934;2023-04-20T12:53:57;100783.31;;;15.70;23.98
77869;BME280;67231;59.144;37.934;2023-04-20T12:56:24;100779.81;;;15.69;23.92